Terminal Aerodrome Forecast
Issued by NWS Cleveland, OH

Home | Current Version | Previous Version | Text Only | Print | Product List | Glossary On
Versions: 1 2 3 4 5 6 7 8 9 10 11 12 13 14 15 16 17 18 19 20
000
FTUS41 KCLE 171758 CCA
TAFERI
TAF COR
KERI 171758Z 1718/1818 17012KT P6SM -SHRA SCT015 BKN035
      TEMPO 1718/1720 20012G20KT 3SM -SHRA OVC015
     FM172000 22012G20KT P6SM SCT015 BKN035
     FM172300 23010G18KT P6SM OVC018
     FM180100 24010G18KT 5SM BR VCSH OVC006=

USA.gov is the U.S. government's official web portal to all federal, state and local government web resources and services.